MV Moseldijk — PBWK — position and weather

sailwx.info

Track history (hours):
 
Tides and Currents Weather Stations Pressure Air Temp Water Temp Dewpoint Dewpoint Depression Visibility Wind Speed Wind Dir Waves Ship Positions

MV Moseldijk

Last reported at 2014-Oct-17 17:24 UTC. Time now 2014-Oct-20 04:32 UTC.
Position N 36°25' E 023°00'.

Length 90 m; draft 4.9 m.

Type: Cargo ship. MMSI: 246644000.

Date/timePositionNaut miles runAvg speedWind from/ knotsBaromVisibWave heightAir tempDewpointWater temp
2014-Oct-17 17:24N 36°25' E 023°00'11 8.6
2014-Oct-17 16:05N 36°27' E 023°14'610.3
2014-Oct-17 15:32N 36°32' E 023°18'32 9.8
2014-Oct-17 12:16N 36°59' E 023°39'39 9.9
2014-Oct-17 08:18N 37°32' E 024°06'  
2014-Oct-09 09:29N 40°45' E 029°32'9 9.1
2014-Oct-09 08:32N 40°43' E 029°21'9 9.2
2014-Oct-09 07:33N 40°42' E 029°10'10 9.7
2014-Oct-09 06:33N 40°39' E 028°57'13 9.8
2014-Oct-09 05:17N 40°31' E 028°45'16 9.3
2014-Oct-09 03:33N 40°25' E 029°04'0 0.2
2014-Oct-09 02:31N 40°25' E 029°05'0 0.0
2014-Oct-09 01:31N 40°25' E 029°05'0 0.0
2014-Oct-09 00:31N 40°25' E 029°05'0 0.0
2014-Oct-08 23:31N 40°25' E 029°05'0 0.0
2014-Oct-08 22:31N 40°25' E 029°05'0 0.0
2014-Oct-08 21:13N 40°25' E 029°05'0 0.3
2014-Oct-08 20:33N 40°25' E 029°04'205 8.5
2014-Oct-07 20:29N 38°44' E 025°12'  
Track history (hours):
 
Tides and Currents Weather Stations Pressure Air Temp Water Temp Dewpoint Dewpoint Depression Visibility Wind Speed Wind Dir Waves Ship Positions

MV Moseldijk

Last reported at 2014-Oct-17 17:24 UTC. Time now 2014-Oct-20 04:32 UTC.
Position N 36°25' E 023°00'.

Length 90 m; draft 4.9 m.

Type: Cargo ship. MMSI: 246644000.

Date/timePositionNaut miles runAvg speedWind from/ knotsBaromVisibWave heightAir tempDewpointWater temp
2014-Oct-17 17:24N 36°25' E 023°00'11 8.6
2014-Oct-17 16:05N 36°27' E 023°14'610.3
2014-Oct-17 15:32N 36°32' E 023°18'32 9.8
2014-Oct-17 12:16N 36°59' E 023°39'39 9.9
2014-Oct-17 08:18N 37°32' E 024°06'  
2014-Oct-09 09:29N 40°45' E 029°32'9 9.1
2014-Oct-09 08:32N 40°43' E 029°21'9 9.2
2014-Oct-09 07:33N 40°42' E 029°10'10 9.7
2014-Oct-09 06:33N 40°39' E 028°57'13 9.8
2014-Oct-09 05:17N 40°31' E 028°45'16 9.3
2014-Oct-09 03:33N 40°25' E 029°04'0 0.2
2014-Oct-09 02:31N 40°25' E 029°05'0 0.0
2014-Oct-09 01:31N 40°25' E 029°05'0 0.0
2014-Oct-09 00:31N 40°25' E 029°05'0 0.0
2014-Oct-08 23:31N 40°25' E 029°05'0 0.0
2014-Oct-08 22:31N 40°25' E 029°05'0 0.0
2014-Oct-08 21:13N 40°25' E 029°05'0 0.3
2014-Oct-08 20:33N 40°25' E 029°04'205 8.5
2014-Oct-07 20:29N 38°44' E 025°12'  

Dump ship's entire track history